Time;durP1;ratioP1;P1;durP2;ratioP2;P2;SDS_P1;SDS_P2;PMS_P1;PMS_P2;Temp;Humidity;BMP_temperature;BMP_pressure;BME280_temperature;BME280_humidity;BME280_pressure;Samples;Min_cycle;Max_cycle;Signal;HPM_P1;HPM_P2
2022/05/07 00:00:49;;;;;;;12.90;8.40;;;6.40;99.90;;;;;;4196487;28;20551;-73
2022/05/07 00:02:49;;;;;;;14.37;9.60;;;6.40;99.90;;;;;;4196375;28;20176;-73
2022/05/07 00:04:50;;;;;;;16.40;9.83;;;6.30;99.90;;;;;;4196303;28;20178;-74
2022/05/07 00:06:51;;;;;;;17.00;11.37;;;6.30;99.90;;;;;;4195892;28;20207;-73
2022/05/07 00:08:52;;;;;;;17.27;10.73;;;6.30;99.90;;;;;;4196455;28;20168;-73
2022/05/07 00:10:52;;;;;;;17.43;9.93;;;6.30;99.90;;;;;;4196378;28;20443;-73
2022/05/07 00:12:53;;;;;;;14.90;10.17;;;6.30;99.90;;;;;;4196388;28;20191;-74
2022/05/07 00:14:54;;;;;;;20.67;11.17;;;6.20;99.90;;;;;;4196363;28;20653;-73
2022/05/07 00:19:13;;;;;;;17.93;10.87;;;6.10;99.90;;;;;;4196426;28;20186;-73
2022/05/07 00:21:14;;;;;;;20.33;11.07;;;6.10;99.90;;;;;;4196345;28;20469;-73
2022/05/07 00:23:14;;;;;;;17.77;10.60;;;6.10;99.90;;;;;;4196345;28;20176;-73
2022/05/07 00:25:15;;;;;;;16.70;9.37;;;6.10;99.90;;;;;;4196387;28;20650;-74
2022/05/07 00:27:16;;;;;;;19.37;12.50;;;6.10;99.90;;;;;;4196198;28;20176;-74
2022/05/07 00:29:16;;;;;;;20.20;11.97;;;6.20;99.90;;;;;;4196126;28;20532;-73
2022/05/07 00:31:17;;;;;;;21.47;12.97;;;6.20;99.90;;;;;;4196277;28;20180;-73
2022/05/07 00:33:17;;;;;;;21.87;12.23;;;6.10;99.90;;;;;;4196408;28;20282;-73
2022/05/07 00:35:18;;;;;;;21.20;12.50;;;6.10;99.90;;;;;;4195902;28;20235;-73
2022/05/07 00:37:18;;;;;;;18.83;13.10;;;6.10;99.90;;;;;;4195770;28;20187;-73
2022/05/07 00:39:19;;;;;;;17.73;11.23;;;6.00;99.90;;;;;;4195988;28;20184;-74
2022/05/07 00:41:20;;;;;;;17.60;11.03;;;6.00;99.90;;;;;;4196162;28;20214;-73
2022/05/07 00:43:20;;;;;;;17.40;10.17;;;5.90;99.90;;;;;;4195908;28;20294;-73
2022/05/07 00:45:21;;;;;;;17.37;11.37;;;5.90;99.90;;;;;;4195235;28;20179;-74
2022/05/07 00:47:32;;;;;;;19.03;11.17;;;6.00;99.90;;;;;;4195996;28;20542;-74
2022/05/07 00:49:33;;;;;;;20.93;12.87;;;6.10;99.90;;;;;;4196037;28;20233;-73
2022/05/07 00:51:34;;;;;;;20.70;12.83;;;6.20;99.90;;;;;;4195966;28;20425;-74
2022/05/07 00:53:36;;;;;;;23.63;12.43;;;6.30;99.90;;;;;;4196117;28;20241;-74
2022/05/07 00:55:37;;;;;;;26.10;14.97;;;6.30;99.90;;;;;;4195173;28;20179;-74
2022/05/07 00:57:38;;;;;;;30.73;14.23;;;6.30;99.90;;;;;;4195802;28;20412;-74
2022/05/07 00:59:39;;;;;;;21.60;12.27;;;6.30;99.90;;;;;;4195795;28;20429;-74
2022/05/07 01:01:40;;;;;;;20.10;11.80;;;6.30;99.90;;;;;;4195805;28;20917;-73
2022/05/07 01:03:41;;;;;;;20.13;10.30;;;6.30;99.90;;;;;;4195873;28;20198;-73
2022/05/07 01:05:41;;;;;;;17.23;11.00;;;6.20;99.90;;;;;;4194887;28;20492;-73
2022/05/07 01:07:44;;;;;;;14.53;9.30;;;6.10;99.90;;;;;;4195579;28;20175;-74
2022/05/07 01:09:44;;;;;;;17.90;10.20;;;5.90;99.90;;;;;;4195617;28;20232;-74
2022/05/07 01:11:46;;;;;;;17.27;11.03;;;5.90;99.90;;;;;;4195403;28;20986;-74
2022/05/07 01:13:47;;;;;;;19.20;10.43;;;5.80;99.90;;;;;;4195490;28;20207;-74
2022/05/07 01:15:53;;;;;;;19.70;10.80;;;5.80;99.90;;;;;;4194866;28;20410;-73
2022/05/07 01:17:53;;;;;;;17.80;10.43;;;5.70;99.90;;;;;;4195376;28;20808;-74
2022/05/07 01:19:54;;;;;;;18.63;10.27;;;5.70;99.90;;;;;;4195243;28;20441;-73
2022/05/07 01:21:54;;;;;;;16.23;11.10;;;5.70;99.90;;;;;;4195260;28;20217;-74
2022/05/07 01:23:55;;;;;;;18.43;11.60;;;5.70;99.90;;;;;;4195373;28;20841;-74
2022/05/07 01:25:58;;;;;;;22.43;12.53;;;5.60;99.90;;;;;;4194652;28;20183;-74
2022/05/07 01:27:59;;;;;;;19.40;12.37;;;5.60;99.90;;;;;;4194655;28;20209;-74
2022/05/07 01:29:59;;;;;;;19.57;11.40;;;5.70;99.90;;;;;;4195147;28;20434;-74
2022/05/07 01:32:00;;;;;;;17.37;10.73;;;5.70;99.90;;;;;;4195103;28;20736;-73
2022/05/07 01:34:01;;;;;;;16.43;9.77;;;5.70;99.90;;;;;;4195057;28;20627;-73
2022/05/07 01:36:03;;;;;;;17.10;10.73;;;5.70;99.90;;;;;;4194512;28;20421;-74
2022/05/07 01:38:05;;;;;;;19.27;10.97;;;5.60;99.90;;;;;;4195191;28;20178;-73
2022/05/07 01:40:06;;;;;;;17.20;10.53;;;5.60;99.90;;;;;;4195111;28;20430;-73
2022/05/07 01:42:07;;;;;;;15.00;10.83;;;5.50;99.90;;;;;;4194877;28;20960;-74
2022/05/07 01:44:07;;;;;;;17.57;10.80;;;5.60;99.90;;;;;;4194807;28;20425;-74
2022/05/07 01:48:09;;;;;;;18.13;11.10;;;5.50;99.90;;;;;;4194313;28;20224;-74
2022/05/07 01:48:29;;;;;;;15.30;10.20;;;5.50;99.90;;;;;;4194731;28;20216;-74
2022/05/07 01:50:29;;;;;;;17.57;10.13;;;5.50;99.90;;;;;;4194500;28;20575;-74
2022/05/07 01:52:30;;;;;;;19.33;10.10;;;5.50;99.90;;;;;;4194542;28;20412;-74
2022/05/07 01:54:30;;;;;;;16.63;10.20;;;5.50;99.90;;;;;;4194685;28;20183;-74
2022/05/07 01:56:31;;;;;;;17.70;11.10;;;5.50;99.90;;;;;;4194405;28;20183;-74
2022/05/07 01:58:31;;;;;;;17.57;11.40;;;5.50;99.90;;;;;;4194854;28;20267;-73
2022/05/07 02:00:33;;;;;;;19.50;11.27;;;5.50;99.90;;;;;;4194630;28;20611;-73
2022/05/07 02:02:34;;;;;;;18.80;10.47;;;5.50;99.90;;;;;;4194785;28;20259;-74
2022/05/07 02:04:34;;;;;;;17.03;10.47;;;5.50;99.90;;;;;;4194809;28;20410;-74
2022/05/07 02:06:35;;;;;;;15.80;10.63;;;5.40;99.90;;;;;;4193995;28;20204;-74
2022/05/07 02:08:35;;;;;;;18.37;11.30;;;5.40;99.90;;;;;;4194713;28;20713;-74
2022/05/07 02:10:36;;;;;;;17.83;10.60;;;5.40;99.90;;;;;;4194756;28;20198;-73
2022/05/07 02:12:36;;;;;;;14.40;9.53;;;5.30;99.90;;;;;;4194712;28;20729;-73
2022/05/07 02:14:37;;;;;;;12.07;7.47;;;5.30;99.90;;;;;;4194712;28;20181;-75
2022/05/07 02:16:37;;;;;;;16.60;9.40;;;5.30;99.90;;;;;;4194025;28;20186;-74
2022/05/07 02:18:38;;;;;;;13.67;8.23;;;5.20;99.90;;;;;;4188431;28;20230;-74
2022/05/07 02:20:38;;;;;;;12.77;8.80;;;5.10;99.90;;;;;;4194063;28;21278;-74
2022/05/07 02:22:39;;;;;;;11.07;7.37;;;5.10;99.90;;;;;;4194547;28;20261;-74
2022/05/07 02:24:39;;;;;;;16.07;9.23;;;5.10;99.90;;;;;;4193252;28;20197;-74
2022/05/07 02:26:40;;;;;;;18.63;11.20;;;5.10;99.90;;;;;;4194116;28;20182;-73
2022/05/07 02:28:40;;;;;;;16.93;11.00;;;5.10;99.90;;;;;;4194604;28;20183;-74
2022/05/07 02:30:41;;;;;;;22.70;10.97;;;5.10;99.90;;;;;;4194386;28;20194;-74
2022/05/07 02:32:42;;;;;;;14.87;9.70;;;5.10;99.90;;;;;;4194476;28;20612;-74
2022/05/07 02:34:42;;;;;;;15.57;9.10;;;5.10;99.90;;;;;;4194457;28;20193;-74
2022/05/07 02:36:43;;;;;;;16.10;9.47;;;5.00;99.90;;;;;;4192599;28;20194;-74
2022/05/07 02:38:43;;;;;;;18.27;10.27;;;5.00;99.90;;;;;;4194226;28;20186;-74
2022/05/07 02:43:03;;;;;;;19.37;10.13;;;5.00;99.90;;;;;;4194494;28;20977;-74
2022/05/07 02:45:06;;;;;;;16.83;10.30;;;5.10;99.90;;;;;;4194179;28;20417;-74
2022/05/07 02:47:06;;;;;;;15.17;9.23;;;5.10;99.90;;;;;;4194210;28;20236;-74
2022/05/07 02:49:10;;;;;;;14.90;9.10;;;5.10;99.90;;;;;;4194418;28;20413;-74
2022/05/07 02:51:11;;;;;;;17.10;9.67;;;5.00;99.90;;;;;;4194611;28;20181;-74
2022/05/07 02:53:12;;;;;;;17.00;9.37;;;5.00;99.90;;;;;;4194509;28;20427;-74
2022/05/07 02:55:12;;;;;;;13.10;8.93;;;5.00;99.90;;;;;;4194196;28;20416;-74
2022/05/07 02:57:13;;;;;;;16.90;9.90;;;5.00;99.90;;;;;;4194007;28;20729;-74
2022/05/07 02:59:13;;;;;;;23.80;13.57;;;4.90;99.90;;;;;;4194220;28;20269;-74
2022/05/07 03:01:14;;;;;;;14.77;9.07;;;5.00;99.90;;;;;;4194619;28;20217;-74
2022/05/07 03:03:15;;;;;;;17.83;10.27;;;5.00;99.90;;;;;;4194965;28;20282;-74
2022/05/07 03:05:15;;;;;;;13.60;9.07;;;5.00;99.90;;;;;;4197250;28;20420;-74
2022/05/07 03:07:16;;;;;;;15.60;8.60;;;5.00;99.90;;;;;;4197192;28;20671;-73
2022/05/07 03:09:17;;;;;;;17.60;9.73;;;5.00;99.90;;;;;;4196143;28;20190;-74
2022/05/07 03:11:18;;;;;;;18.13;10.57;;;5.00;99.90;;;;;;4197911;28;20241;-74
2022/05/07 03:13:18;;;;;;;20.20;11.30;;;5.00;99.90;;;;;;4197614;28;20230;-74
2022/05/07 03:15:19;;;;;;;19.23;11.03;;;5.00;99.90;;;;;;4197116;28;20653;-74
2022/05/07 03:17:20;;;;;;;24.87;11.77;;;5.00;99.90;;;;;;4197300;28;20186;-74
2022/05/07 03:19:20;;;;;;;24.47;13.47;;;5.10;99.90;;;;;;4195426;28;20750;-74
2022/05/07 03:21:20;;;;;;;25.47;12.93;;;5.20;99.90;;;;;;4197135;28;20249;-74
2022/05/07 03:23:21;;;;;;;25.43;12.90;;;5.20;99.90;;;;;;4197302;28;20250;-74
2022/05/07 03:25:21;;;;;;;19.73;10.47;;;5.20;99.90;;;;;;4196806;28;20664;-74
2022/05/07 03:27:22;;;;;;;20.17;11.23;;;5.20;99.90;;;;;;4197171;28;20175;-74
2022/05/07 03:29:23;;;;;;;18.43;10.63;;;5.10;99.90;;;;;;4197097;28;20206;-74
2022/05/07 03:31:23;;;;;;;17.67;10.07;;;5.00;99.90;;;;;;4195735;28;20267;-74
2022/05/07 03:33:25;;;;;;;16.50;9.20;;;5.00;99.90;;;;;;4197151;28;20217;-74
2022/05/07 03:35:25;;;;;;;19.27;9.60;;;4.90;99.90;;;;;;4196602;28;20614;-74
2022/05/07 03:37:26;;;;;;;15.87;9.93;;;4.90;99.90;;;;;;4197100;28;20423;-74
2022/05/07 03:39:27;;;;;;;16.70;9.80;;;4.90;99.90;;;;;;4196976;28;20189;-74
2022/05/07 03:41:27;;;;;;;15.60;9.60;;;4.90;99.90;;;;;;4196866;28;20212;-74
2022/05/07 03:43:28;;;;;;;18.07;10.93;;;4.90;99.90;;;;;;4196857;28;20174;-74
2022/05/07 03:45:32;;;;;;;19.47;9.50;;;4.90;99.90;;;;;;4194953;28;20175;-74
2022/05/07 03:47:33;;;;;;;20.17;11.00;;;4.90;99.90;;;;;;4196782;28;20671;-74
2022/05/07 03:49:33;;;;;;;15.23;9.80;;;4.90;99.90;;;;;;4195277;28;20433;-74
2022/05/07 03:53:29;;;;;;;15.83;9.70;;;4.80;99.90;;;;;;4196493;28;20185;-74
2022/05/07 03:53:54;;;;;;;17.37;10.80;;;4.90;99.90;;;;;;4196674;28;20191;-74
2022/05/07 03:55:58;;;;;;;14.33;9.43;;;4.90;99.90;;;;;;4196144;28;20429;-75
2022/05/07 03:57:58;;;;;;;16.87;9.60;;;4.90;99.90;;;;;;4196538;28;20606;-74
2022/05/07 04:00:00;;;;;;;16.37;10.13;;;4.80;99.90;;;;;;4196631;28;20435;-74
2022/05/07 04:02:00;;;;;;;17.17;10.17;;;4.70;99.90;;;;;;4196562;28;20232;-74
2022/05/07 04:04:01;;;;;;;16.30;9.60;;;4.70;99.90;;;;;;4196543;28;21320;-74
2022/05/07 04:06:02;;;;;;;16.53;9.27;;;4.80;99.90;;;;;;4195966;28;20187;-74
2022/05/07 04:08:03;;;;;;;20.17;12.47;;;4.80;99.90;;;;;;4196467;28;20256;-74
2022/05/07 04:10:04;;;;;;;19.97;11.10;;;4.90;99.90;;;;;;4196594;28;20197;-74
2022/05/07 04:12:05;;;;;;;16.20;9.20;;;4.80;99.90;;;;;;4196350;28;20186;-73
2022/05/07 04:14:05;;;;;;;21.20;10.37;;;4.70;99.90;;;;;;4196077;28;21041;-74
2022/05/07 04:16:06;;;;;;;19.80;11.20;;;4.70;99.90;;;;;;4195992;28;20178;-74
2022/05/07 04:18:07;;;;;;;32.17;13.97;;;4.70;99.90;;;;;;4196307;28;20217;-74
2022/05/07 04:20:09;;;;;;;27.27;13.27;;;4.80;99.90;;;;;;4196125;28;20198;-74
2022/05/07 04:22:09;;;;;;;26.67;13.00;;;4.90;99.90;;;;;;4196315;28;20463;-74
2022/05/07 04:24:10;;;;;;;25.13;13.73;;;5.00;99.90;;;;;;4196354;28;20787;-74
2022/05/07 04:26:10;;;;;;;25.20;13.00;;;5.00;99.90;;;;;;4195659;28;20182;-74
2022/05/07 04:28:11;;;;;;;25.13;12.63;;;5.00;99.90;;;;;;4196368;28;20546;-74
2022/05/07 04:30:12;;;;;;;26.77;12.83;;;5.00;99.90;;;;;;4196658;28;20207;-74
2022/05/07 04:32:12;;;;;;;22.80;12.20;;;5.10;99.90;;;;;;4196198;28;20252;-74
2022/05/07 04:34:13;;;;;;;19.33;11.63;;;5.10;99.90;;;;;;4187020;28;20194;-74
2022/05/07 04:36:13;;;;;;;16.67;10.10;;;5.10;99.90;;;;;;4194871;28;20890;-74
2022/05/07 04:38:14;;;;;;;21.10;10.57;;;5.00;99.90;;;;;;4194731;28;20233;-74
2022/05/07 04:40:15;;;;;;;20.07;10.23;;;4.90;99.90;;;;;;4196036;28;20210;-74
2022/05/07 04:42:15;;;;;;;18.63;11.07;;;4.90;99.90;;;;;;4195827;28;20192;-74
2022/05/07 04:44:16;;;;;;;21.97;11.43;;;4.90;99.90;;;;;;4196344;28;20221;-74
2022/05/07 04:46:17;;;;;;;24.57;13.40;;;5.00;99.90;;;;;;4195337;28;20186;-74
2022/05/07 04:48:18;;;;;;;20.60;10.90;;;5.20;99.90;;;;;;4195770;28;20203;-74
2022/05/07 04:50:18;;;;;;;24.50;13.20;;;5.30;99.90;;;;;;4196034;28;20440;-74
2022/05/07 04:52:19;;;;;;;28.60;14.90;;;5.40;99.90;;;;;;4195798;28;20183;-74
2022/05/07 04:54:20;;;;;;;24.23;13.87;;;5.50;99.90;;;;;;4194487;28;20264;-74
2022/05/07 04:56:22;;;;;;;25.83;13.80;;;5.60;99.90;;;;;;4195171;28;20264;-74
2022/05/07 04:58:23;;;;;;;24.30;14.00;;;5.70;99.90;;;;;;4195698;28;20417;-74
2022/05/07 05:00:23;;;;;;;24.73;14.60;;;5.80;99.90;;;;;;4195974;28;20466;-75
2022/05/07 05:02:25;;;;;;;34.43;16.20;;;5.80;99.90;;;;;;4195606;28;20256;-74
2022/05/07 05:04:25;;;;;;;25.43;15.07;;;5.90;99.90;;;;;;4195657;28;20191;-74
2022/05/07 05:06:26;;;;;;;23.83;13.70;;;5.90;99.90;;;;;;4195183;28;20416;-74
2022/05/07 05:08:30;;;;;;;21.50;13.53;;;6.00;99.90;;;;;;4195797;28;20176;-74
2022/05/07 05:10:31;;;;;;;20.80;11.67;;;6.00;99.90;;;;;;4195674;28;20195;-74
2022/05/07 05:12:32;;;;;;;23.40;12.67;;;6.00;99.90;;;;;;4195323;28;20817;-74
2022/05/07 05:16:53;;;;;;;20.33;12.07;;;5.90;99.90;;;;;;4194564;28;20429;-74
2022/05/07 05:18:53;;;;;;;24.03;12.07;;;6.00;99.90;;;;;;4195101;28;20426;-74
2022/05/07 05:20:54;;;;;;;18.90;11.40;;;5.90;99.90;;;;;;4194987;28;20289;-74
2022/05/07 05:22:54;;;;;;;22.17;11.80;;;6.00;99.90;;;;;;4194796;28;20195;-74
2022/05/07 05:24:55;;;;;;;18.50;10.07;;;6.00;99.90;;;;;;4195187;28;20172;-74
2022/05/07 05:26:55;;;;;;;19.30;11.10;;;6.00;99.90;;;;;;4194184;28;20183;-73
2022/05/07 05:28:56;;;;;;;16.73;9.77;;;6.00;99.90;;;;;;4195616;28;20175;-74
2022/05/07 05:30:56;;;;;;;18.23;10.07;;;6.00;99.90;;;;;;4195757;28;20194;-75
2022/05/07 05:32:57;;;;;;;15.33;10.03;;;6.00;99.90;;;;;;4195484;28;20175;-74
2022/05/07 05:34:57;;;;;;;16.53;10.43;;;6.00;99.90;;;;;;4194775;28;20195;-74
2022/05/07 05:36:58;;;;;;;17.23;10.53;;;6.00;99.90;;;;;;4194697;28;20252;-74
2022/05/07 05:38:59;;;;;;;15.37;9.77;;;6.00;99.90;;;;;;4195141;28;20183;-74
2022/05/07 05:41:00;;;;;;;19.50;11.40;;;6.00;99.90;;;;;;4194860;28;20199;-74
2022/05/07 05:43:00;;;;;;;18.83;10.77;;;6.00;99.90;;;;;;4194952;28;20426;-74
2022/05/07 05:45:01;;;;;;;18.20;11.00;;;6.10;99.90;;;;;;4194778;28;20179;-74
2022/05/07 05:47:02;;;;;;;19.97;11.50;;;6.20;99.90;;;;;;4194589;28;20198;-73
2022/05/07 05:49:02;;;;;;;18.63;10.47;;;6.20;99.90;;;;;;4194940;28;20637;-74
2022/05/07 05:51:04;;;;;;;16.13;10.90;;;6.20;99.90;;;;;;4194784;28;20248;-75
2022/05/07 05:53:04;;;;;;;19.37;11.00;;;6.30;99.90;;;;;;4195261;28;20172;-74
2022/05/07 05:55:05;;;;;;;22.37;12.13;;;6.50;99.90;;;;;;4194586;28;20962;-74
2022/05/07 05:57:05;;;;;;;20.57;14.67;;;6.60;99.90;;;;;;4194345;28;20265;-75
2022/05/07 05:59:06;;;;;;;16.20;12.33;;;6.70;99.90;;;;;;4195035;28;20175;-74
2022/05/07 06:01:07;;;;;;;21.87;14.93;;;6.80;99.90;;;;;;4194628;28;20214;-75
2022/05/07 06:03:08;;;;;;;19.10;11.80;;;6.90;99.90;;;;;;4194968;28;20205;-74
2022/05/07 06:05:08;;;;;;;16.93;11.23;;;7.00;99.90;;;;;;4194502;28;20413;-74
2022/05/07 06:07:09;;;;;;;18.43;11.50;;;7.00;99.90;;;;;;4194340;28;20225;-74
2022/05/07 06:09:10;;;;;;;20.40;12.53;;;7.10;99.90;;;;;;4194786;28;20646;-74
2022/05/07 06:11:10;;;;;;;17.10;10.77;;;7.20;99.90;;;;;;4194806;28;20254;-75
2022/05/07 06:13:11;;;;;;;18.47;10.93;;;7.20;99.90;;;;;;4194652;28;20556;-74
2022/05/07 06:15:12;;;;;;;17.87;10.97;;;7.30;99.90;;;;;;4194565;28;20619;-74
2022/05/07 06:17:12;;;;;;;14.47;10.30;;;7.30;99.90;;;;;;4194323;28;20203;-74
2022/05/07 06:19:13;;;;;;;18.10;10.27;;;7.40;99.90;;;;;;4194609;28;20183;-74
2022/05/07 06:21:13;;;;;;;19.20;11.07;;;7.40;99.90;;;;;;4194674;28;20240;-74
2022/05/07 06:23:14;;;;;;;15.87;10.90;;;7.50;99.90;;;;;;4193159;28;20638;-74
2022/05/07 06:27:33;;;;;;;18.80;11.40;;;7.60;99.90;;;;;;4194705;28;20229;-74
2022/05/07 06:29:34;;;;;;;14.87;9.53;;;7.70;99.90;;;;;;4194465;28;20422;-74
2022/05/07 06:31:34;;;;;;;18.57;10.33;;;7.80;99.90;;;;;;4194759;28;20193;-74
2022/05/07 06:33:35;;;;;;;13.53;8.87;;;7.80;99.90;;;;;;4194377;28;20183;-74
2022/05/07 06:35:35;;;;;;;12.80;8.30;;;7.90;99.90;;;;;;4193845;28;20748;-74
2022/05/07 06:37:38;;;;;;;13.07;8.07;;;8.00;99.90;;;;;;4195555;28;20178;-74
2022/05/07 06:39:39;;;;;;;11.90;6.87;;;8.10;99.90;;;;;;4197698;28;20196;-74
2022/05/07 06:41:40;;;;;;;7.43;5.40;;;8.20;99.90;;;;;;4197676;28;20461;-74
2022/05/07 06:43:40;;;;;;;6.87;5.40;;;8.30;99.90;;;;;;4197858;28;20209;-74
2022/05/07 06:45:41;;;;;;;8.13;4.80;;;8.50;99.90;;;;;;4197131;28;20194;-74
2022/05/07 06:47:41;;;;;;;8.10;4.83;;;8.60;99.90;;;;;;4197843;28;20174;-74
2022/05/07 06:49:43;;;;;;;6.70;4.63;;;8.70;99.90;;;;;;4197643;28;20192;-74
2022/05/07 06:51:44;;;;;;;8.37;4.10;;;9.00;99.90;;;;;;4197815;28;20214;-74
2022/05/07 06:53:44;;;;;;;8.03;3.63;;;9.20;99.90;;;;;;4197821;28;20179;-74
2022/05/07 06:56:01;;;;;;;7.03;3.70;;;9.20;99.90;;;;;;4195684;28;20727;-74
2022/05/07 06:58:01;;;;;;;4.73;3.27;;;9.40;99.90;;;;;;4197809;28;20181;-74
2022/05/07 07:00:02;;;;;;;7.13;3.90;;;9.60;99.90;;;;;;4197646;28;20247;-74
2022/05/07 07:02:04;;;;;;;4.03;3.20;;;9.70;99.90;;;;;;4197708;28;20312;-74
2022/05/07 07:04:04;;;;;;;4.00;3.13;;;9.80;99.90;;;;;;4197735;28;20175;-74
2022/05/07 07:06:05;;;;;;;6.23;3.90;;;10.00;99.90;;;;;;4196957;28;20189;-74
2022/05/07 07:08:06;;;;;;;4.70;3.37;;;10.20;99.90;;;;;;4197565;28;20171;-74
2022/05/07 07:10:07;;;;;;;7.50;3.80;;;10.30;99.90;;;;;;4197681;28;20196;-74
2022/05/07 07:12:10;;;;;;;4.47;3.00;;;10.40;99.90;;;;;;4197397;28;20179;-74
2022/05/07 07:14:10;;;;;;;5.40;3.70;;;10.40;99.90;;;;;;4197457;28;20670;-74
2022/05/07 07:16:11;;;;;;;4.33;3.20;;;10.60;99.90;;;;;;4196824;28;20171;-74
2022/05/07 07:18:12;;;;;;;5.67;3.27;;;10.60;99.90;;;;;;4197219;28;20175;-74
2022/05/07 07:20:14;;;;;;;4.03;3.40;;;10.80;99.90;;;;;;4197429;28;20192;-73
2022/05/07 07:22:15;;;;;;;4.13;3.10;;;10.80;99.80;;;;;;4197418;28;20241;-74
2022/05/07 07:24:18;;;;;;;4.83;3.33;;;11.10;99.20;;;;;;4197512;28;20183;-74
2022/05/07 07:26:18;;;;;;;3.83;3.43;;;11.20;98.30;;;;;;4195454;28;20172;-74
2022/05/07 07:28:19;;;;;;;7.80;3.40;;;11.20;99.90;;;;;;4197040;28;20198;-74
2022/05/07 07:30:19;;;;;;;8.10;3.53;;;11.20;95.20;;;;;;4197333;28;20195;-75
2022/05/07 07:32:20;;;;;;;4.67;3.10;;;11.50;94.20;;;;;;4197192;28;20191;-74
2022/05/07 07:34:23;;;;;;;3.97;2.90;;;11.50;93.30;;;;;;4196766;28;20271;-74
2022/05/07 07:36:24;;;;;;;5.40;3.20;;;11.60;93.80;;;;;;4196519;28;20534;-74
2022/05/07 07:38:25;;;;;;;3.67;2.87;;;11.80;93.50;;;;;;4197009;28;20271;-74
2022/05/07 07:40:26;;;;;;;4.53;3.30;;;11.90;94.80;;;;;;4197277;28;20187;-73
2022/05/07 07:42:27;;;;;;;3.80;2.83;;;12.00;95.40;;;;;;4196883;28;20226;-75
2022/05/07 07:44:28;;;;;;;4.80;3.10;;;12.00;95.60;;;;;;4196972;28;20175;-74
2022/05/07 07:48:47;;;;;;;5.60;3.93;;;12.30;91.20;;;;;;4196452;28;20179;-74
2022/05/07 07:50:50;;;;;;;5.13;3.53;;;12.60;90.00;;;;;;4196407;28;20199;-74
2022/05/07 07:52:54;;;;;;;4.53;3.43;;;12.60;85.90;;;;;;4195467;28;20184;-74
2022/05/07 07:54:54;;;;;;;3.43;2.60;;;12.60;81.10;;;;;;4196724;28;20172;-74
2022/05/07 07:56:56;;;;;;;4.33;2.87;;;12.80;83.00;;;;;;4196187;28;20183;-74
2022/05/07 07:58:56;;;;;;;6.83;3.03;;;13.00;83.30;;;;;;4196380;28;20180;-74
2022/05/07 08:00:57;;;;;;;5.23;3.23;;;13.10;83.00;;;;;;4196237;28;20196;-74
2022/05/07 08:03:05;;;;;;;3.83;2.90;;;13.20;84.40;;;;;;4196612;28;20685;-74
2022/05/07 08:05:06;;;;;;;4.73;3.20;;;13.30;80.10;;;;;;4196266;28;20167;-74
2022/05/07 08:12:05;;;;;;;4.23;3.00;;;13.50;76.00;;;;;;4161042;28;20295;-74
2022/05/07 08:14:09;;;;;;;4.90;3.63;;;13.60;77.90;;;;;;4163996;28;20239;-74
2022/05/07 08:16:11;;;;;;;7.50;3.17;;;13.70;76.50;;;;;;4195741;28;20183;-74
2022/05/07 08:18:12;;;;;;;5.40;3.50;;;13.70;74.90;;;;;;4196350;28;20258;-74
2022/05/07 08:20:13;;;;;;;4.80;2.93;;;13.90;76.50;;;;;;4196074;28;20550;-74
2022/05/07 08:22:14;;;;;;;6.50;3.40;;;14.10;84.50;;;;;;4194808;28;20249;-73
2022/05/07 08:24:14;;;;;;;4.07;3.30;;;14.20;75.60;;;;;;4196392;28;20175;-74
2022/05/07 08:26:15;;;;;;;3.90;3.17;;;14.20;72.60;;;;;;4195521;28;20183;-74
2022/05/07 08:28:16;;;;;;;4.27;3.17;;;14.10;70.60;;;;;;4195996;28;20760;-74
2022/05/07 08:30:17;;;;;;;3.80;3.07;;;14.30;72.60;;;;;;4196245;28;20199;-74
2022/05/07 08:32:17;;;;;;;4.93;3.47;;;14.50;68.30;;;;;;4196676;28;20237;-74
2022/05/07 08:34:17;;;;;;;5.13;3.30;;;14.60;68.40;;;;;;4197081;28;20180;-74
2022/05/07 08:36:18;;;;;;;5.70;3.33;;;14.70;67.50;;;;;;4196059;28;20191;-74
2022/05/07 08:38:19;;;;;;;6.07;3.80;;;14.90;70.60;;;;;;4196198;28;20210;-73
2022/05/07 08:40:20;;;;;;;4.20;3.10;;;14.90;66.80;;;;;;4196280;28;20298;-73
2022/05/07 08:42:20;;;;;;;5.97;3.40;;;14.90;66.80;;;;;;4196042;28;20211;-72
2022/05/07 08:44:21;;;;;;;5.70;3.63;;;15.10;67.10;;;;;;4196368;28;20187;-73
2022/05/07 08:46:22;;;;;;;3.33;3.00;;;15.20;63.60;;;;;;4195358;28;20635;-73
2022/05/07 08:48:22;;;;;;;4.33;3.10;;;15.30;62.90;;;;;;4195961;28;20207;-73
2022/05/07 08:50:23;;;;;;;4.30;3.30;;;15.50;61.90;;;;;;4195997;28;20310;-73
2022/05/07 08:52:26;;;;;;;4.13;2.70;;;15.50;68.70;;;;;;4195953;28;20219;-72
2022/05/07 08:54:27;;;;;;;4.20;3.43;;;15.50;61.70;;;;;;4195941;28;20338;-73
2022/05/07 08:56:27;;;;;;;3.70;3.13;;;15.50;64.90;;;;;;4195639;28;20183;-74
2022/05/07 08:58:28;;;;;;;5.17;3.00;;;15.50;62.40;;;;;;4196314;28;20225;-73
2022/05/07 09:00:29;;;;;;;5.90;3.30;;;15.80;59.60;;;;;;4195768;28;20302;-74
2022/05/07 09:02:41;;;;;;;3.87;2.93;;;15.90;60.70;;;;;;4195566;28;20234;-73
2022/05/07 09:04:56;;;;;;;4.67;3.47;;;16.10;58.70;;;;;;4194441;28;20246;-74
2022/05/07 09:06:57;;;;;;;3.40;2.57;;;16.40;58.50;;;;;;4197431;28;20187;-73
2022/05/07 09:08:58;;;;;;;3.70;2.50;;;16.70;64.10;;;;;;4198745;28;20210;-73
2022/05/07 09:10:58;;;;;;;3.40;2.30;;;16.90;54.10;;;;;;4198941;28;20753;-73
2022/05/07 09:13:09;;;;;;;4.53;3.23;;;16.70;56.00;;;;;;4198598;28;20179;-74
2022/05/07 09:15:10;;;;;;;3.73;2.80;;;16.90;54.40;;;;;;4198429;28;20274;-73
2022/05/07 09:17:11;;;;;;;6.00;3.20;;;16.80;53.90;;;;;;4198213;28;20543;-74
2022/05/07 09:19:27;;;;;;;2.87;2.50;;;16.80;54.00;;;;;;4198883;28;20187;-73
2022/05/07 09:21:28;;;;;;;4.93;2.87;;;16.60;53.40;;;;;;4198513;28;20261;-74
2022/05/07 09:23:28;;;;;;;3.57;2.63;;;16.30;56.00;;;;;;4197201;28;20188;-74
2022/05/07 09:25:30;;;;;;;3.77;2.67;;;16.20;54.50;;;;;;4197968;28;20183;-73
2022/05/07 09:27:30;;;;;;;4.63;2.30;;;16.20;55.60;;;;;;4198350;28;20175;-73
2022/05/07 09:29:32;;;;;;;2.87;2.00;;;16.70;53.40;;;;;;4197958;28;20215;-73
2022/05/07 09:31:34;;;;;;;3.43;3.10;;;17.20;50.60;;;;;;4199026;28;20183;-73
2022/05/07 09:33:35;;;;;;;2.67;2.33;;;17.00;50.80;;;;;;4198323;28;20180;-73
2022/05/07 09:35:47;;;;;;;3.13;2.30;;;17.10;52.20;;;;;;4197702;28;20195;-73
2022/05/07 09:37:58;;;;;;;4.63;1.70;;;17.00;52.20;;;;;;4198718;28;20259;-73
2022/05/07 09:40:06;;;;;;;3.40;2.50;;;17.10;53.10;;;;;;4198544;28;20225;-73
2022/05/07 09:42:07;;;;;;;4.07;2.57;;;17.00;49.40;;;;;;4197639;28;20276;-72
2022/05/07 09:44:08;;;;;;;3.40;2.47;;;17.10;50.50;;;;;;4198119;28;20183;-73
2022/05/07 09:46:09;;;;;;;4.27;2.70;;;17.60;52.00;;;;;;4197857;28;20183;-72
2022/05/07 09:48:12;;;;;;;3.57;2.27;;;17.50;51.90;;;;;;4198739;28;20286;-72
2022/05/07 09:50:23;;;;;;;2.50;2.00;;;17.10;49.10;;;;;;4198848;28;20274;-72
2022/05/07 09:52:24;;;;;;;2.77;2.10;;;16.70;52.90;;;;;;4198578;28;20557;-70
2022/05/07 09:59:06;;;;;;;4.27;2.30;;;16.60;49.80;;;;;;4197954;28;20186;-71
2022/05/07 10:01:21;;;;;;;3.10;2.57;;;16.70;50.50;;;;;;4198284;28;20196;-72
2022/05/07 10:03:50;;;;;;;3.63;2.37;;;16.50;51.30;;;;;;4198327;28;20171;-72
2022/05/07 10:05:59;;;;;;;3.60;1.90;;;17.00;53.10;;;;;;4187340;28;20206;-70
2022/05/07 10:08:21;;;;;;;3.63;1.97;;;17.10;50.60;;;;;;4193131;28;20210;-69
2022/05/07 10:10:29;;;;;;;4.17;2.03;;;17.30;49.50;;;;;;4197020;28;20203;-70
2022/05/07 10:12:30;;;;;;;4.70;2.57;;;17.30;50.90;;;;;;4181265;28;20179;-70
2022/05/07 10:14:32;;;;;;;2.33;2.13;;;17.00;49.40;;;;;;4209488;28;20186;-72
2022/05/07 10:16:32;;;;;;;2.80;1.97;;;17.00;50.30;;;;;;4193526;28;20179;-71
2022/05/07 10:18:43;;;;;;;2.67;2.20;;;18.00;46.60;;;;;;4208868;28;20585;-71
2022/05/07 10:20:45;;;;;;;5.53;3.40;;;18.40;48.10;;;;;;4196801;28;20604;-73
2022/05/07 10:22:56;;;;;;;8.43;4.10;;;18.00;50.90;;;;;;4205782;28;20223;-73
2022/05/07 10:25:08;;;;;;;3.10;2.80;;;17.70;47.80;;;;;;4198786;28;20178;-72
2022/05/07 10:27:24;;;;;;;3.57;2.87;;;17.80;47.40;;;;;;4203869;28;20658;-73
2022/05/07 10:29:26;;;;;;;6.67;3.50;;;18.40;48.10;;;;;;4202351;28;20222;-71
2022/05/07 10:31:27;;;;;;;3.70;2.83;;;19.20;44.40;;;;;;4201850;28;20250;-70
2022/05/07 10:33:38;;;;;;;3.30;2.60;;;20.00;43.50;;;;;;4203295;28;20191;-70
2022/05/07 10:35:47;;;;;;;4.57;2.40;;;19.50;45.90;;;;;;4199470;28;20191;-70
2022/05/07 10:37:48;;;;;;;2.80;2.33;;;19.30;44.30;;;;;;4206331;28;20210;-71
2022/05/07 10:39:52;;;;;;;2.60;2.40;;;19.10;45.30;;;;;;4199030;28;20773;-71
2022/05/07 10:41:53;;;;;;;3.00;2.70;;;20.00;43.00;;;;;;4206642;28;20211;-71
2022/05/07 10:43:56;;;;;;;4.43;2.20;;;20.40;40.50;;;;;;4197914;28;20199;-71
2022/05/07 10:46:01;;;;;;;4.47;2.90;;;20.50;41.40;;;;;;4206493;28;20194;-71
2022/05/07 10:48:02;;;;;;;2.80;2.30;;;20.10;42.00;;;;;;4196599;28;20804;-70
2022/05/07 10:50:11;;;;;;;3.13;2.80;;;20.80;40.10;;;;;;4208077;28;20211;-69
2022/05/07 10:52:12;;;;;;;4.00;2.40;;;21.10;39.80;;;;;;4195246;28;20185;-68